LZB7059 LBSF-HEAL
Flight info
| Callsign | LZB7059 |
|---|---|
| Flight time | 1h 48m |
| Altitude | 33000 |
| Route | DILVO3S/09 DILVO N127 OTKOK DCT LOPTI UN127 LMO UL618 MES UN139 KPC UL54 PAXIS Y707 RARMO |
| Aircraft | A320/M-SDE3FGHIRWY/LB1 |
Departure
| Time | 2026-05-05 18:45 |
|---|---|
| Airport | Sofia Airport (LBSF) |
Arrival
| Time | 2026-05-05 20:33 |
|---|---|
| Airport | El Alamein International Airport (HEAL) |
| Time | Latitude | Longitude | Altitude | Speed | Heading |
|---|---|---|---|---|---|
| 2026-05-05 18:23 | 42.68967 | 23.40853 | 1757 ft | 0 kts | 161° |
| 2026-05-05 18:38 | 42.68966 | 23.40853 | 1756 ft | 0 kts | 161° |
| 2026-05-05 18:39 | 42.68962 | 23.40855 | 1756 ft | 0 kts | 161° |
| 2026-05-05 18:40 | 42.68956 | 23.40857 | 1756 ft | 1 kts | 162° |
| 2026-05-05 18:40 | 42.68925 | 23.40866 | 1756 ft | 6 kts | 188° |
| 2026-05-05 18:40 | 42.68908 | 23.40828 | 1756 ft | 9 kts | 276° |
| 2026-05-05 18:41 | 42.68943 | 23.40663 | 1756 ft | 17 kts | 285° |
| 2026-05-05 18:41 | 42.68977 | 23.40505 | 1756 ft | 17 kts | 287° |
| 2026-05-05 18:41 | 42.69011 | 23.40348 | 1756 ft | 17 kts | 286° |
| 2026-05-05 18:41 | 42.69046 | 23.40190 | 1756 ft | 17 kts | 287° |
| 2026-05-05 18:42 | 42.69081 | 23.40035 | 1756 ft | 17 kts | 287° |
| 2026-05-05 18:42 | 42.69100 | 23.39934 | 1756 ft | 15 kts | 270° |
| 2026-05-05 18:42 | 42.69131 | 23.39750 | 1756 ft | 15 kts | 289° |
| 2026-05-05 18:42 | 42.69162 | 23.39611 | 1756 ft | 15 kts | 286° |
| 2026-05-05 18:43 | 42.69208 | 23.39547 | 1756 ft | 15 kts | 353° |
| 2026-05-05 18:43 | 42.69349 | 23.39560 | 1756 ft | 15 kts | 3° |
| 2026-05-05 18:43 | 42.69421 | 23.39568 | 1756 ft | 15 kts | 5° |
| 2026-05-05 18:43 | 42.69510 | 23.39580 | 1756 ft | 14 kts | 4° |
| 2026-05-05 18:44 | 42.69614 | 23.39589 | 1756 ft | 15 kts | 4° |
| 2026-05-05 18:44 | 42.69719 | 23.39604 | 1756 ft | 15 kts | 9° |
| 2026-05-05 18:44 | 42.69767 | 23.39710 | 1756 ft | 15 kts | 94° |
| 2026-05-05 18:44 | 42.69761 | 23.39801 | 1756 ft | 12 kts | 95° |
| 2026-05-05 18:45 | 42.69742 | 23.40095 | 1756 ft | 58 kts | 93° |
| 2026-05-05 18:45 | 42.69712 | 23.40625 | 1756 ft | 109 kts | 95° |
| 2026-05-05 18:45 | 42.69608 | 23.42490 | 1906 ft | 176 kts | 93° |
| 2026-05-05 18:45 | 42.69513 | 23.44133 | 2691 ft | 175 kts | 94° |
| 2026-05-05 18:46 | 42.69413 | 23.45733 | 3545 ft | 174 kts | 93° |
| 2026-05-05 18:46 | 42.69326 | 23.47371 | 4120 ft | 181 kts | 92° |
| 2026-05-05 18:46 | 42.69268 | 23.48542 | 4402 ft | 192 kts | 94° |
| 2026-05-05 18:46 | 42.68804 | 23.50313 | 4823 ft | 209 kts | 129° |
| 2026-05-05 18:47 | 42.67277 | 23.52104 | 5433 ft | 230 kts | 140° |
| 2026-05-05 18:47 | 42.65978 | 23.53539 | 5784 ft | 253 kts | 140° |
| 2026-05-05 18:47 | 42.64579 | 23.55111 | 6268 ft | 271 kts | 139° |
| 2026-05-05 18:47 | 42.63090 | 23.56809 | 6925 ft | 282 kts | 139° |
| 2026-05-05 18:48 | 42.62087 | 23.57959 | 7471 ft | 285 kts | 138° |
| 2026-05-05 18:48 | 42.60590 | 23.59683 | 8290 ft | 288 kts | 138° |
| 2026-05-05 18:48 | 42.59059 | 23.61449 | 9083 ft | 292 kts | 137° |
| 2026-05-05 18:48 | 42.57501 | 23.63249 | 9855 ft | 296 kts | 137° |
| 2026-05-05 18:49 | 42.55403 | 23.65677 | 10725 ft | 307 kts | 137° |
| 2026-05-05 18:49 | 42.54311 | 23.66948 | 10981 ft | 318 kts | 137° |
| 2026-05-05 18:49 | 42.51969 | 23.69677 | 11441 ft | 343 kts | 137° |
| 2026-05-05 18:49 | 42.50118 | 23.71825 | 11750 ft | 360 kts | 137° |
| 2026-05-05 18:50 | 42.48822 | 23.73324 | 12028 ft | 369 kts | 138° |
| 2026-05-05 18:50 | 42.46212 | 23.76331 | 12909 ft | 375 kts | 137° |
| 2026-05-05 18:50 | 42.44223 | 23.78618 | 13621 ft | 378 kts | 137° |
| 2026-05-05 18:50 | 42.42200 | 23.80940 | 14278 ft | 382 kts | 137° |
| 2026-05-05 18:51 | 42.40870 | 23.82467 | 14684 ft | 386 kts | 137° |
| 2026-05-05 18:51 | 42.38804 | 23.84837 | 15298 ft | 390 kts | 137° |
| 2026-05-05 18:51 | 42.36037 | 23.88006 | 16083 ft | 397 kts | 137° |
| 2026-05-05 18:51 | 42.33910 | 23.90445 | 16670 ft | 401 kts | 137° |
| 2026-05-05 18:52 | 42.31662 | 23.92632 | 17226 ft | 408 kts | 148° |
| 2026-05-05 18:52 | 42.29058 | 23.94200 | 17795 ft | 414 kts | 161° |
| 2026-05-05 18:52 | 42.27164 | 23.94850 | 18189 ft | 417 kts | 167° |
| 2026-05-05 18:52 | 42.24311 | 23.95554 | 18741 ft | 421 kts | 169° |
| 2026-05-05 18:53 | 42.21409 | 23.96206 | 19242 ft | 426 kts | 169° |
| 2026-05-05 18:53 | 42.17498 | 23.97100 | 19896 ft | 432 kts | 169° |
| 2026-05-05 18:53 | 42.15538 | 23.97559 | 20236 ft | 434 kts | 169° |
| 2026-05-05 18:53 | 42.11567 | 23.98508 | 20890 ft | 440 kts | 169° |
| 2026-05-05 18:54 | 42.09530 | 23.99001 | 21211 ft | 443 kts | 169° |
| 2026-05-05 18:54 | 42.06511 | 23.99733 | 21738 ft | 445 kts | 169° |
| 2026-05-05 18:54 | 42.03469 | 24.00479 | 22298 ft | 447 kts | 168° |
| 2026-05-05 18:54 | 41.99415 | 24.01806 | 22910 ft | 452 kts | 162° |
| 2026-05-05 18:55 | 41.96423 | 24.03155 | 23338 ft | 456 kts | 158° |
| 2026-05-05 18:55 | 41.94453 | 24.04187 | 23617 ft | 458 kts | 157° |
| 2026-05-05 18:55 | 41.91486 | 24.05777 | 24030 ft | 462 kts | 157° |
| 2026-05-05 18:55 | 41.87493 | 24.07917 | 24585 ft | 467 kts | 157° |
| 2026-05-05 18:56 | 41.85466 | 24.08994 | 24855 ft | 469 kts | 158° |
| 2026-05-05 18:56 | 41.81408 | 24.11141 | 25427 ft | 472 kts | 158° |
| 2026-05-05 18:56 | 41.79383 | 24.12210 | 25696 ft | 473 kts | 158° |
| 2026-05-05 18:56 | 41.75302 | 24.14360 | 26177 ft | 477 kts | 158° |
| 2026-05-05 18:57 | 41.73249 | 24.15441 | 26405 ft | 479 kts | 158° |
| 2026-05-05 18:57 | 41.70125 | 24.17084 | 26817 ft | 480 kts | 158° |
| 2026-05-05 18:57 | 41.67033 | 24.18711 | 27312 ft | 479 kts | 158° |
| 2026-05-05 18:57 | 41.62925 | 24.20865 | 27923 ft | 479 kts | 158° |
| 2026-05-05 18:58 | 41.60856 | 24.21952 | 28228 ft | 479 kts | 158° |
| 2026-05-05 18:58 | 41.57742 | 24.23583 | 28682 ft | 478 kts | 158° |
| 2026-05-05 18:58 | 41.54673 | 24.25190 | 29108 ft | 478 kts | 158° |
| 2026-05-05 18:58 | 41.51574 | 24.26810 | 29536 ft | 478 kts | 158° |
| 2026-05-05 18:59 | 41.48493 | 24.28420 | 29969 ft | 478 kts | 158° |
| 2026-05-05 18:59 | 41.45400 | 24.30033 | 30390 ft | 478 kts | 159° |
| 2026-05-05 18:59 | 41.42323 | 24.31638 | 30806 ft | 477 kts | 159° |
| 2026-05-05 18:59 | 41.38174 | 24.33797 | 31379 ft | 476 kts | 159° |
| 2026-05-05 19:00 | 41.36131 | 24.34859 | 31660 ft | 476 kts | 159° |
| 2026-05-05 19:00 | 41.33046 | 24.36461 | 32077 ft | 475 kts | 159° |
| 2026-05-05 19:00 | 41.28981 | 24.38571 | 32604 ft | 474 kts | 159° |
| 2026-05-05 19:00 | 41.26950 | 24.39624 | 32856 ft | 473 kts | 159° |
| 2026-05-05 19:01 | 41.23883 | 24.41213 | 33208 ft | 473 kts | 159° |
| 2026-05-05 19:01 | 41.19812 | 24.43356 | 33609 ft | 474 kts | 157° |
| 2026-05-05 19:01 | 41.17812 | 24.44548 | 33785 ft | 475 kts | 154° |
| 2026-05-05 19:01 | 41.13845 | 24.47082 | 34107 ft | 477 kts | 154° |
| 2026-05-05 19:02 | 41.11870 | 24.48355 | 34260 ft | 478 kts | 154° |
| 2026-05-05 19:02 | 41.08879 | 24.50280 | 34508 ft | 479 kts | 154° |
| 2026-05-05 19:02 | 41.04875 | 24.52850 | 34828 ft | 478 kts | 154° |
| 2026-05-05 19:02 | 41.02888 | 24.54120 | 34967 ft | 479 kts | 154° |
| 2026-05-05 19:03 | 40.96880 | 24.57951 | 35032 ft | 481 kts | 154° |
| 2026-05-05 19:03 | 40.90851 | 24.61787 | 35033 ft | 482 kts | 154° |
| 2026-05-05 19:04 | 40.84775 | 24.65639 | 35033 ft | 483 kts | 155° |
| 2026-05-05 19:04 | 40.78732 | 24.69489 | 35031 ft | 484 kts | 155° |
| 2026-05-05 19:05 | 40.72693 | 24.73327 | 35033 ft | 484 kts | 155° |
| 2026-05-05 19:05 | 40.65635 | 24.77805 | 35029 ft | 484 kts | 155° |
| 2026-05-05 19:06 | 40.60563 | 24.81004 | 35027 ft | 484 kts | 155° |
| 2026-05-05 19:06 | 40.54501 | 24.84823 | 35029 ft | 485 kts | 155° |
| 2026-05-05 19:07 | 40.48430 | 24.88648 | 35026 ft | 484 kts | 155° |
| 2026-05-05 19:07 | 40.41347 | 24.93092 | 35027 ft | 484 kts | 155° |
| 2026-05-05 19:08 | 40.36292 | 24.96255 | 35028 ft | 484 kts | 155° |
| 2026-05-05 19:08 | 40.30238 | 25.00037 | 35024 ft | 485 kts | 155° |
| 2026-05-05 19:09 | 40.24138 | 25.03842 | 35028 ft | 486 kts | 155° |
| 2026-05-05 19:09 | 40.17063 | 25.08242 | 35026 ft | 485 kts | 155° |
| 2026-05-05 19:10 | 40.11978 | 25.11399 | 35025 ft | 486 kts | 155° |
| 2026-05-05 19:10 | 40.05865 | 25.15184 | 35029 ft | 487 kts | 155° |
| 2026-05-05 19:11 | 39.99723 | 25.18978 | 35027 ft | 487 kts | 155° |
| 2026-05-05 19:11 | 39.93621 | 25.22708 | 35033 ft | 487 kts | 157° |
| 2026-05-05 19:12 | 39.87257 | 25.25767 | 35036 ft | 486 kts | 163° |
| 2026-05-05 19:12 | 39.80813 | 25.28373 | 35033 ft | 487 kts | 164° |
| 2026-05-05 19:13 | 39.74338 | 25.30993 | 35035 ft | 487 kts | 164° |
| 2026-05-05 19:13 | 39.66833 | 25.34049 | 35035 ft | 488 kts | 163° |
| 2026-05-05 19:14 | 39.61440 | 25.36243 | 35032 ft | 488 kts | 163° |
| 2026-05-05 19:14 | 39.54971 | 25.38878 | 35033 ft | 488 kts | 164° |
| 2026-05-05 19:15 | 39.48487 | 25.41509 | 35029 ft | 488 kts | 164° |
| 2026-05-05 19:15 | 39.40952 | 25.44560 | 35030 ft | 488 kts | 164° |
| 2026-05-05 19:16 | 39.35570 | 25.46737 | 35030 ft | 488 kts | 164° |
| 2026-05-05 19:16 | 39.29086 | 25.49354 | 35029 ft | 488 kts | 164° |
| 2026-05-05 19:17 | 39.22600 | 25.51967 | 35028 ft | 488 kts | 164° |
| 2026-05-05 19:17 | 39.16132 | 25.54566 | 35033 ft | 488 kts | 164° |
| 2026-05-05 19:18 | 39.09648 | 25.57167 | 35035 ft | 488 kts | 164° |
| 2026-05-05 19:18 | 39.03204 | 25.59749 | 35032 ft | 487 kts | 164° |
| 2026-05-05 19:19 | 38.96715 | 25.62343 | 35032 ft | 487 kts | 164° |
| 2026-05-05 19:19 | 38.90288 | 25.64906 | 35035 ft | 488 kts | 164° |
| 2026-05-05 19:20 | 38.83754 | 25.67525 | 35040 ft | 488 kts | 165° |
| 2026-05-05 19:20 | 38.77272 | 25.70110 | 35038 ft | 487 kts | 165° |
| 2026-05-05 19:21 | 38.70821 | 25.72668 | 35038 ft | 489 kts | 165° |
| 2026-05-05 19:21 | 38.64325 | 25.75235 | 35032 ft | 488 kts | 165° |
| 2026-05-05 19:22 | 38.57871 | 25.77788 | 35036 ft | 488 kts | 165° |
| 2026-05-05 19:22 | 38.51382 | 25.80350 | 35038 ft | 488 kts | 165° |
| 2026-05-05 19:23 | 38.44904 | 25.82898 | 35037 ft | 488 kts | 165° |
| 2026-05-05 19:23 | 38.37330 | 25.85871 | 35042 ft | 488 kts | 165° |
| 2026-05-05 19:24 | 38.31922 | 25.87990 | 35040 ft | 489 kts | 165° |
| 2026-05-05 19:24 | 38.25441 | 25.90534 | 35046 ft | 489 kts | 163° |
| 2026-05-05 19:25 | 38.19031 | 25.93423 | 35047 ft | 489 kts | 162° |
| 2026-05-05 19:25 | 38.12622 | 25.96365 | 35052 ft | 489 kts | 162° |
| 2026-05-05 19:26 | 38.06222 | 25.99283 | 35051 ft | 489 kts | 162° |
| 2026-05-05 19:26 | 37.99838 | 26.02183 | 35047 ft | 489 kts | 162° |
| 2026-05-05 19:27 | 37.93459 | 26.05074 | 35052 ft | 488 kts | 162° |
| 2026-05-05 19:27 | 37.87034 | 26.07976 | 35048 ft | 489 kts | 162° |
| 2026-05-05 19:28 | 37.80651 | 26.10847 | 35048 ft | 490 kts | 162° |
| 2026-05-05 19:28 | 37.74220 | 26.13745 | 35048 ft | 490 kts | 162° |
| 2026-05-05 19:29 | 37.67836 | 26.16621 | 35045 ft | 490 kts | 162° |
| 2026-05-05 19:29 | 37.61418 | 26.19506 | 35050 ft | 490 kts | 162° |
| 2026-05-05 19:30 | 37.55002 | 26.22384 | 35047 ft | 491 kts | 162° |
| 2026-05-05 19:30 | 37.48560 | 26.25265 | 35042 ft | 491 kts | 162° |
| 2026-05-05 19:31 | 37.42135 | 26.28137 | 35041 ft | 490 kts | 162° |
| 2026-05-05 19:31 | 37.35694 | 26.31006 | 35044 ft | 491 kts | 162° |
| 2026-05-05 19:32 | 37.29274 | 26.33862 | 35047 ft | 491 kts | 162° |
| 2026-05-05 19:32 | 37.22815 | 26.36731 | 35043 ft | 492 kts | 162° |
| 2026-05-05 19:33 | 37.16395 | 26.39583 | 35044 ft | 492 kts | 162° |
| 2026-05-05 19:33 | 37.09942 | 26.42443 | 35044 ft | 492 kts | 162° |
| 2026-05-05 19:34 | 37.03503 | 26.45295 | 35040 ft | 491 kts | 162° |
| 2026-05-05 19:35 | 36.93870 | 26.49544 | 35040 ft | 491 kts | 162° |
| 2026-05-05 19:35 | 36.87421 | 26.52381 | 35038 ft | 490 kts | 162° |
| 2026-05-05 19:36 | 36.80990 | 26.55196 | 35042 ft | 490 kts | 163° |
| 2026-05-05 19:36 | 36.74520 | 26.58025 | 35042 ft | 491 kts | 162° |
| 2026-05-05 19:37 | 36.68132 | 26.60816 | 35042 ft | 490 kts | 162° |
| 2026-05-05 19:37 | 36.61680 | 26.63633 | 35042 ft | 490 kts | 162° |
| 2026-05-05 19:38 | 36.55283 | 26.66432 | 35044 ft | 489 kts | 163° |
| 2026-05-05 19:38 | 36.48852 | 26.69256 | 35045 ft | 490 kts | 163° |
| 2026-05-05 19:39 | 36.42447 | 26.72041 | 35045 ft | 489 kts | 163° |
| 2026-05-05 19:39 | 36.36004 | 26.74829 | 35047 ft | 488 kts | 163° |
| 2026-05-05 19:40 | 36.29578 | 26.77616 | 35315 ft | 490 kts | 163° |
| 2026-05-05 19:40 | 36.26389 | 26.78999 | 35574 ft | 488 kts | 164° |
| 2026-05-05 19:40 | 36.23181 | 26.80384 | 35821 ft | 486 kts | 164° |
| 2026-05-05 19:40 | 36.19981 | 26.81767 | 36032 ft | 486 kts | 164° |
| 2026-05-05 19:41 | 36.16827 | 26.83126 | 36265 ft | 485 kts | 164° |
| 2026-05-05 19:41 | 36.13628 | 26.84503 | 36545 ft | 484 kts | 164° |
| 2026-05-05 19:41 | 36.10487 | 26.85854 | 36844 ft | 482 kts | 164° |
| 2026-05-05 19:41 | 36.07321 | 26.87213 | 37043 ft | 482 kts | 164° |
| 2026-05-05 19:42 | 36.04154 | 26.88572 | 37050 ft | 482 kts | 164° |
| 2026-05-05 19:42 | 35.97792 | 26.91297 | 37060 ft | 481 kts | 164° |
| 2026-05-05 19:43 | 35.91503 | 26.93986 | 37056 ft | 481 kts | 164° |
| 2026-05-05 19:43 | 35.85157 | 26.96690 | 37054 ft | 481 kts | 164° |
| 2026-05-05 19:44 | 35.78817 | 26.99381 | 37055 ft | 481 kts | 164° |
| 2026-05-05 19:44 | 35.72533 | 27.02022 | 37056 ft | 479 kts | 164° |
| 2026-05-05 19:45 | 35.66204 | 27.04677 | 37049 ft | 480 kts | 165° |
| 2026-05-05 19:45 | 35.59906 | 27.07318 | 37053 ft | 481 kts | 165° |
| 2026-05-05 19:46 | 35.53577 | 27.09965 | 37051 ft | 480 kts | 165° |
| 2026-05-05 19:46 | 35.47272 | 27.12595 | 37052 ft | 480 kts | 165° |
| 2026-05-05 19:47 | 35.40836 | 27.14701 | 37057 ft | 478 kts | 173° |
| 2026-05-05 19:47 | 35.34272 | 27.15810 | 37064 ft | 476 kts | 179° |
| 2026-05-05 19:48 | 35.27678 | 27.16619 | 37060 ft | 476 kts | 179° |
| 2026-05-05 19:48 | 35.21119 | 27.17446 | 37056 ft | 475 kts | 179° |
| 2026-05-05 19:49 | 35.14551 | 27.18291 | 37057 ft | 476 kts | 179° |
| 2026-05-05 19:49 | 35.07996 | 27.19134 | 37058 ft | 475 kts | 178° |
| 2026-05-05 19:50 | 35.01401 | 27.19981 | 37054 ft | 475 kts | 179° |
| 2026-05-05 19:50 | 34.94863 | 27.20816 | 37058 ft | 475 kts | 179° |
| 2026-05-05 19:51 | 34.88266 | 27.21656 | 37049 ft | 474 kts | 179° |
| 2026-05-05 19:51 | 34.81717 | 27.22485 | 37053 ft | 474 kts | 179° |
| 2026-05-05 19:52 | 34.75180 | 27.23315 | 37059 ft | 474 kts | 179° |
| 2026-05-05 19:52 | 34.68613 | 27.24146 | 37066 ft | 473 kts | 179° |
| 2026-05-05 19:53 | 34.62092 | 27.24972 | 37066 ft | 472 kts | 179° |
| 2026-05-05 19:53 | 34.55532 | 27.25801 | 37065 ft | 472 kts | 179° |
| 2026-05-05 19:54 | 34.49005 | 27.26621 | 37067 ft | 472 kts | 179° |
| 2026-05-05 19:54 | 34.42458 | 27.27447 | 37070 ft | 472 kts | 179° |
| 2026-05-05 19:55 | 34.35971 | 27.28262 | 37071 ft | 471 kts | 179° |
| 2026-05-05 19:55 | 34.29433 | 27.29082 | 37076 ft | 470 kts | 179° |
| 2026-05-05 19:56 | 34.22955 | 27.29893 | 37078 ft | 470 kts | 179° |
| 2026-05-05 19:56 | 34.16419 | 27.30709 | 37080 ft | 471 kts | 179° |
| 2026-05-05 19:57 | 34.09907 | 27.31521 | 37079 ft | 471 kts | 179° |
| 2026-05-05 19:57 | 34.03421 | 27.32332 | 37083 ft | 470 kts | 179° |
| 2026-05-05 19:58 | 33.96912 | 27.33605 | 37093 ft | 475 kts | 171° |
| 2026-05-05 19:58 | 33.90598 | 27.35847 | 37081 ft | 478 kts | 163° |
| 2026-05-05 19:59 | 33.84414 | 27.38987 | 37089 ft | 480 kts | 159° |
| 2026-05-05 19:59 | 33.78348 | 27.42235 | 37088 ft | 480 kts | 159° |
| 2026-05-05 20:00 | 33.72228 | 27.45489 | 37087 ft | 479 kts | 159° |
| 2026-05-05 20:00 | 33.66136 | 27.48713 | 37086 ft | 479 kts | 159° |
| 2026-05-05 20:01 | 33.60051 | 27.51924 | 37086 ft | 479 kts | 159° |
| 2026-05-05 20:01 | 33.53934 | 27.55144 | 37086 ft | 479 kts | 159° |
| 2026-05-05 20:02 | 33.47832 | 27.58351 | 37085 ft | 479 kts | 160° |
| 2026-05-05 20:02 | 33.41744 | 27.61547 | 37090 ft | 480 kts | 160° |
| 2026-05-05 20:03 | 33.35619 | 27.64757 | 37085 ft | 480 kts | 159° |
| 2026-05-05 20:03 | 33.29561 | 27.67951 | 37088 ft | 479 kts | 160° |
| 2026-05-05 20:04 | 33.23447 | 27.71168 | 37088 ft | 479 kts | 160° |
| 2026-05-05 20:04 | 33.17332 | 27.74367 | 37088 ft | 478 kts | 160° |
| 2026-05-05 20:05 | 33.11241 | 27.77541 | 37093 ft | 479 kts | 160° |
| 2026-05-05 20:05 | 33.05152 | 27.80708 | 37093 ft | 478 kts | 160° |
| 2026-05-05 20:06 | 32.99056 | 27.83875 | 37091 ft | 478 kts | 160° |
| 2026-05-05 20:06 | 32.92968 | 27.87032 | 37093 ft | 478 kts | 160° |
| 2026-05-05 20:07 | 32.86866 | 27.90190 | 36570 ft | 472 kts | 160° |
| 2026-05-05 20:07 | 32.83865 | 27.91735 | 35816 ft | 475 kts | 160° |
| 2026-05-05 20:07 | 32.80819 | 27.93301 | 35098 ft | 480 kts | 160° |
| 2026-05-05 20:07 | 32.77749 | 27.94881 | 34476 ft | 481 kts | 160° |
| 2026-05-05 20:08 | 32.74688 | 27.96457 | 33822 ft | 483 kts | 160° |
| 2026-05-05 20:08 | 32.71629 | 27.98035 | 33049 ft | 485 kts | 160° |
| 2026-05-05 20:08 | 32.68520 | 27.99638 | 32411 ft | 484 kts | 160° |
| 2026-05-05 20:08 | 32.65415 | 28.01235 | 32121 ft | 485 kts | 160° |
| 2026-05-05 20:09 | 32.62331 | 28.02821 | 32110 ft | 486 kts | 160° |
| 2026-05-05 20:09 | 32.56227 | 28.05964 | 31769 ft | 472 kts | 160° |
| 2026-05-05 20:09 | 32.53228 | 28.07505 | 31126 ft | 472 kts | 160° |
| 2026-05-05 20:10 | 32.50211 | 28.09051 | 30368 ft | 475 kts | 160° |
| 2026-05-05 20:10 | 32.47161 | 28.10611 | 29589 ft | 477 kts | 160° |
| 2026-05-05 20:10 | 32.44123 | 28.12165 | 28846 ft | 477 kts | 160° |
| 2026-05-05 20:10 | 32.41067 | 28.13730 | 28092 ft | 477 kts | 160° |
| 2026-05-05 20:11 | 32.38037 | 28.15277 | 27286 ft | 479 kts | 160° |
| 2026-05-05 20:11 | 32.34980 | 28.16839 | 26660 ft | 475 kts | 160° |
| 2026-05-05 20:11 | 32.31973 | 28.18378 | 26400 ft | 474 kts | 160° |
| 2026-05-05 20:11 | 32.28931 | 28.19933 | 26115 ft | 472 kts | 160° |
| 2026-05-05 20:12 | 32.25919 | 28.21467 | 25817 ft | 471 kts | 160° |
| 2026-05-05 20:12 | 32.22938 | 28.22986 | 25431 ft | 469 kts | 160° |
| 2026-05-05 20:12 | 32.19958 | 28.24504 | 24984 ft | 465 kts | 160° |
| 2026-05-05 20:12 | 32.16981 | 28.26019 | 24495 ft | 462 kts | 160° |
| 2026-05-05 20:13 | 32.14067 | 28.27502 | 24024 ft | 458 kts | 160° |
| 2026-05-05 20:13 | 32.11160 | 28.28980 | 23539 ft | 454 kts | 160° |
| 2026-05-05 20:13 | 32.08264 | 28.30449 | 23046 ft | 450 kts | 160° |
| 2026-05-05 20:13 | 32.05411 | 28.31895 | 22556 ft | 448 kts | 160° |
| 2026-05-05 20:14 | 32.02548 | 28.33347 | 22072 ft | 444 kts | 160° |
| 2026-05-05 20:14 | 31.99717 | 28.34782 | 21604 ft | 441 kts | 160° |
| 2026-05-05 20:14 | 31.96907 | 28.36205 | 21108 ft | 438 kts | 160° |
| 2026-05-05 20:14 | 31.94149 | 28.37599 | 20613 ft | 436 kts | 159° |
| 2026-05-05 20:15 | 31.91339 | 28.39019 | 20114 ft | 433 kts | 160° |
| 2026-05-05 20:15 | 31.88574 | 28.40414 | 19604 ft | 431 kts | 159° |
| 2026-05-05 20:15 | 31.85825 | 28.41798 | 19121 ft | 428 kts | 160° |
| 2026-05-05 20:15 | 31.83110 | 28.43162 | 18642 ft | 425 kts | 160° |
| 2026-05-05 20:16 | 31.80416 | 28.44511 | 18150 ft | 422 kts | 159° |
| 2026-05-05 20:16 | 31.77699 | 28.45874 | 17648 ft | 420 kts | 159° |
| 2026-05-05 20:16 | 31.75040 | 28.47207 | 17143 ft | 418 kts | 159° |
| 2026-05-05 20:16 | 31.72364 | 28.48549 | 16658 ft | 416 kts | 159° |
| 2026-05-05 20:17 | 31.69708 | 28.49881 | 16191 ft | 412 kts | 159° |
| 2026-05-05 20:17 | 31.67108 | 28.51185 | 15725 ft | 409 kts | 159° |
| 2026-05-05 20:17 | 31.64497 | 28.52492 | 15259 ft | 405 kts | 159° |
| 2026-05-05 20:17 | 31.61857 | 28.53602 | 14795 ft | 400 kts | 166° |
| 2026-05-05 20:18 | 31.59166 | 28.54297 | 14321 ft | 394 kts | 174° |
| 2026-05-05 20:18 | 31.56463 | 28.54694 | 13863 ft | 390 kts | 176° |
| 2026-05-05 20:18 | 31.53748 | 28.55027 | 13402 ft | 386 kts | 176° |
| 2026-05-05 20:18 | 31.51103 | 28.55346 | 12975 ft | 383 kts | 176° |
| 2026-05-05 20:19 | 31.48474 | 28.55669 | 12540 ft | 379 kts | 175° |
| 2026-05-05 20:19 | 31.45852 | 28.55996 | 12115 ft | 375 kts | 175° |
| 2026-05-05 20:19 | 31.43278 | 28.56322 | 11688 ft | 372 kts | 175° |
| 2026-05-05 20:19 | 31.40699 | 28.56650 | 11264 ft | 369 kts | 175° |
| 2026-05-05 20:20 | 31.38162 | 28.56976 | 10855 ft | 365 kts | 175° |
| 2026-05-05 20:20 | 31.35649 | 28.57298 | 10450 ft | 361 kts | 175° |
| 2026-05-05 20:20 | 31.33206 | 28.57614 | 10337 ft | 346 kts | 175° |
| 2026-05-05 20:20 | 31.30845 | 28.57919 | 10253 ft | 332 kts | 175° |
| 2026-05-05 20:21 | 31.28601 | 28.58208 | 10178 ft | 317 kts | 175° |
| 2026-05-05 20:21 | 31.26456 | 28.58483 | 10114 ft | 303 kts | 175° |
| 2026-05-05 20:21 | 31.24383 | 28.58747 | 9813 ft | 300 kts | 175° |
| 2026-05-05 20:21 | 31.22319 | 28.59010 | 9488 ft | 298 kts | 175° |
| 2026-05-05 20:22 | 31.20264 | 28.59271 | 9166 ft | 296 kts | 175° |
| 2026-05-05 20:22 | 31.18223 | 28.59531 | 8850 ft | 293 kts | 175° |
| 2026-05-05 20:22 | 31.16204 | 28.59788 | 8540 ft | 291 kts | 174° |
| 2026-05-05 20:22 | 31.14189 | 28.60047 | 8229 ft | 289 kts | 175° |
| 2026-05-05 20:23 | 31.12196 | 28.60303 | 7923 ft | 286 kts | 175° |
| 2026-05-05 20:23 | 31.10232 | 28.60554 | 7625 ft | 284 kts | 175° |
| 2026-05-05 20:23 | 31.08275 | 28.60806 | 7327 ft | 282 kts | 175° |
| 2026-05-05 20:23 | 31.06324 | 28.61054 | 7035 ft | 279 kts | 175° |
| 2026-05-05 20:24 | 31.04403 | 28.61300 | 6745 ft | 277 kts | 175° |
| 2026-05-05 20:24 | 31.02482 | 28.61545 | 6454 ft | 275 kts | 175° |
| 2026-05-05 20:24 | 31.00573 | 28.61789 | 6163 ft | 274 kts | 175° |
| 2026-05-05 20:24 | 30.98673 | 28.62031 | 5871 ft | 272 kts | 174° |
| 2026-05-05 20:25 | 30.96795 | 28.62270 | 5582 ft | 271 kts | 174° |
| 2026-05-05 20:25 | 30.94924 | 28.62509 | 5298 ft | 269 kts | 174° |
| 2026-05-05 20:25 | 30.92442 | 28.62825 | 4922 ft | 267 kts | 174° |
| 2026-05-05 20:25 | 30.91207 | 28.62995 | 4742 ft | 272 kts | 172° |
| 2026-05-05 20:26 | 30.89383 | 28.63683 | 4456 ft | 276 kts | 147° |
| 2026-05-05 20:26 | 30.87893 | 28.65058 | 4196 ft | 273 kts | 135° |
| 2026-05-05 20:26 | 30.86560 | 28.66619 | 3919 ft | 268 kts | 132° |
| 2026-05-05 20:26 | 30.85282 | 28.68183 | 3646 ft | 264 kts | 131° |
| 2026-05-05 20:27 | 30.84028 | 28.69725 | 3361 ft | 258 kts | 131° |
| 2026-05-05 20:27 | 30.82730 | 28.71104 | 3068 ft | 249 kts | 149° |
| 2026-05-05 20:27 | 30.81107 | 28.71646 | 2975 ft | 246 kts | 184° |
| 2026-05-05 20:27 | 30.79495 | 28.71079 | 2966 ft | 242 kts | 218° |
| 2026-05-05 20:28 | 30.78454 | 28.69642 | 2963 ft | 225 kts | 253° |
| 2026-05-05 20:28 | 30.78254 | 28.67938 | 2976 ft | 212 kts | 280° |
| 2026-05-05 20:28 | 30.78466 | 28.66239 | 2981 ft | 213 kts | 283° |
| 2026-05-05 20:28 | 30.78830 | 28.64573 | 2962 ft | 209 kts | 299° |
| 2026-05-05 20:29 | 30.79655 | 28.63213 | 2978 ft | 206 kts | 314° |
| 2026-05-05 20:29 | 30.80639 | 28.61981 | 2972 ft | 206 kts | 315° |
| 2026-05-05 20:29 | 30.81611 | 28.60767 | 2944 ft | 201 kts | 314° |
| 2026-05-05 20:29 | 30.82533 | 28.59562 | 2763 ft | 196 kts | 313° |
| 2026-05-05 20:30 | 30.83418 | 28.58372 | 2512 ft | 193 kts | 313° |
| 2026-05-05 20:30 | 30.84271 | 28.57212 | 2279 ft | 187 kts | 313° |
| 2026-05-05 20:30 | 30.85090 | 28.56098 | 1982 ft | 175 kts | 313° |
| 2026-05-05 20:30 | 30.85854 | 28.55062 | 1783 ft | 160 kts | 314° |
| 2026-05-05 20:31 | 30.86551 | 28.54119 | 1554 ft | 148 kts | 314° |
| 2026-05-05 20:31 | 30.87198 | 28.53247 | 1385 ft | 136 kts | 314° |
| 2026-05-05 20:31 | 30.87801 | 28.52433 | 1208 ft | 129 kts | 315° |
| 2026-05-05 20:31 | 30.88388 | 28.51648 | 1042 ft | 129 kts | 316° |
| 2026-05-05 20:32 | 30.88985 | 28.50853 | 875 ft | 129 kts | 315° |
| 2026-05-05 20:32 | 30.89563 | 28.50061 | 698 ft | 129 kts | 314° |
| 2026-05-05 20:32 | 30.90153 | 28.49262 | 518 ft | 129 kts | 315° |
| 2026-05-05 20:32 | 30.90725 | 28.48456 | 391 ft | 129 kts | 311° |
| 2026-05-05 20:33 | 30.91301 | 28.47661 | 220 ft | 128 kts | 314° |
| 2026-05-05 20:33 | 30.91886 | 28.46908 | 153 ft | 116 kts | 308° |
| 2026-05-05 20:33 | 30.92339 | 28.46294 | 154 ft | 87 kts | 310° |
| 2026-05-05 20:33 | 30.92643 | 28.45891 | 155 ft | 37 kts | 334° |
| 2026-05-05 20:34 | 30.92817 | 28.45981 | 155 ft | 18 kts | 42° |
| 2026-05-05 20:34 | 30.92895 | 28.46065 | 155 ft | 9 kts | 54° |
| 2026-05-05 20:34 | 30.92928 | 28.46120 | 155 ft | 8 kts | 45° |
| 2026-05-05 20:34 | 30.92967 | 28.46162 | 155 ft | 5 kts | 43° |
| 2026-05-05 20:35 | 30.92975 | 28.46170 | 155 ft | 0 kts | 41° |